Terminal Aerodrome Forecast
Issued by NWS

Home | Current Version | Previous Version | Text Only | Print | Product List | Glossary Off
Versions: 1 2 3 4 5 6 7 8 9 10 11 12 13 14 15 16 17 18 19 20 21 22 23 24 25 26 27 28 29 30 31 32 33 34 35 36 37

000
FTUS43 KGRB 301100
TAFRHI
TAF
KRHI 301128Z 3012/3112 30003KT 3SM -SHRA BR OVC003
     FM301400 VRB03KT P6SM VCSH SCT005 OVC025
      TEMPO 3014/3018 5SM -RA BR BKN005
     FM301800 28006KT P6SM VCSH SCT008 OVC025
      TEMPO 3018/3021 5SM -RA BR BKN008
     FM302300 31008KT P6SM BKN012 BKN035
     FM310100 04003KT P6SM SCT015 BKN050
     FM310500 VRB03KT 3SM BR FEW009 FEW050
      TEMPO 3108/3112 1/2SM FG BKN005=

USA.gov is the U.S. government's official web portal to all federal, state and local government web resources and services.